createdAt,value
2023-03-28T00:02:43.670Z,98391.03
2023-03-28T00:07:46.087Z,98421.28
2023-03-28T00:12:48.585Z,98360.41
2023-03-28T00:17:52.860Z,98361.16
2023-03-28T00:22:55.240Z,98367.94
2023-03-28T00:27:57.591Z,98408.66
2023-03-28T00:32:59.905Z,98391.03
2023-03-28T00:38:02.240Z,98431.81
2023-03-28T00:43:04.744Z,98455.06
2023-03-28T00:48:18.333Z,98412.34
2023-03-28T00:53:26.735Z,98455.69
2023-03-28T00:58:33.040Z,98464.19
2023-03-28T01:03:35.952Z,98413.69
2023-03-28T01:08:42.966Z,98467.31
2023-03-28T01:13:49.215Z,98424.47
2023-03-28T01:18:52.393Z,98452.16
2023-03-28T01:24:11.659Z,98477.25
2023-03-28T01:29:37.784Z,98475.56
2023-03-28T01:35:07.449Z,98472.75
2023-03-28T01:40:23.362Z,98477.06
2023-03-28T01:45:54.528Z,98476.94
2023-03-28T01:51:15.910Z,98482.88
2023-03-28T01:56:24.900Z,98458.41
2023-03-28T02:01:46.702Z,98489.59
2023-03-28T02:06:51.308Z,98490.19
2023-03-28T02:12:03.843Z,98447.44
2023-03-28T02:17:22.177Z,98503.69
2023-03-28T02:23:10.345Z,98462.59
2023-03-28T02:28:32.916Z,98518.09
2023-03-28T02:33:49.453Z,98481.47
2023-03-28T02:39:10.759Z,98521.44
2023-03-28T02:44:35.966Z,98524.84
2023-03-28T02:49:52.834Z,98526.44
2023-03-28T02:55:19.346Z,98524.50
2023-03-28T03:00:51.521Z,98522.63
2023-03-28T03:05:54.120Z,98546.03
2023-03-28T03:10:56.824Z,98518.94
2023-03-28T03:15:59.418Z,98557.94
2023-03-28T03:21:02.069Z,98550.03
2023-03-28T03:26:32.034Z,98493.28
2023-03-28T03:31:37.360Z,98541.88
2023-03-28T03:36:58.161Z,98432.94
2023-03-28T03:42:00.749Z,98522.41
2023-03-28T03:47:06.567Z,98583.22
2023-03-28T03:52:15.454Z,98573.63
2023-03-28T03:57:17.926Z,98590.03
2023-03-28T04:02:20.990Z,98595.16
2023-03-28T04:07:35.101Z,98575.06
2023-03-28T04:12:38.982Z,98574.06
2023-03-28T04:17:41.861Z,98593.16
2023-03-28T04:22:55.030Z,98581.06
2023-03-28T04:28:02.114Z,98552.19
2023-03-28T04:33:08.553Z,98571.50
2023-03-28T04:38:20.406Z,98598.66
2023-03-28T04:43:30.787Z,98577.81
2023-03-28T04:48:33.237Z,98603.19
2023-03-28T04:53:38.099Z,98608.47
2023-03-28T04:59:00.903Z,98620.53
2023-03-28T05:04:44.564Z,98623.34
2023-03-28T05:09:49.075Z,98601.78
2023-03-28T05:14:51.541Z,98514.75
2023-03-28T05:19:54.593Z,98624.66
2023-03-28T05:24:59.580Z,98625.66
2023-03-28T05:30:02.370Z,98633.63
2023-03-28T05:35:08.987Z,98596.34
2023-03-28T05:40:12.844Z,98645.28
2023-03-28T05:45:17.991Z,98612.66
2023-03-28T05:50:52.753Z,98647.84
2023-03-28T05:55:56.966Z,98597.84
2023-03-28T06:01:00.799Z,98613.88
2023-03-28T06:06:08.928Z,98631.81
2023-03-28T06:11:12.288Z,98632.22
2023-03-28T06:16:30.047Z,98631.56
2023-03-28T06:21:34.018Z,98650.78
2023-03-28T06:26:41.205Z,98654.66
2023-03-28T06:31:46.377Z,98637.47
2023-03-28T06:36:48.817Z,98668.97
2023-03-28T06:41:51.386Z,98601.44
2023-03-28T06:46:59.390Z,98668.69
2023-03-28T06:52:01.793Z,98660.25
2023-03-28T06:57:05.630Z,98661.34
2023-03-28T07:02:12.692Z,98646.84
2023-03-28T07:07:16.454Z,98655.88
2023-03-28T07:12:19.379Z,98656.00
2023-03-28T07:17:25.933Z,98613.59
2023-03-28T07:22:28.903Z,98635.50
2023-03-28T07:27:31.467Z,98649.53
2023-03-28T07:32:47.478Z,98631.31
2023-03-28T07:37:56.157Z,98647.09
2023-03-28T07:43:09.254Z,98636.84
2023-03-28T07:48:11.678Z,98668.22
2023-03-28T07:53:14.170Z,98653.56
2023-03-28T07:58:17.228Z,98657.94
2023-03-28T08:03:23.957Z,98673.56
2023-03-28T08:08:27.037Z,98674.53
2023-03-28T08:13:55.560Z,98666.03
2023-03-28T08:19:09.950Z,98686.06
2023-03-28T08:24:35.833Z,98660.94
2023-03-28T08:29:50.974Z,98674.03
2023-03-28T08:34:53.541Z,98673.19
2023-03-28T08:39:57.668Z,98642.03
2023-03-28T08:45:25.017Z,98678.47
2023-03-28T08:50:37.757Z,98673.28
2023-03-28T08:55:43.655Z,98670.72
2023-03-28T09:00:46.852Z,98659.44
2023-03-28T09:05:55.217Z,98672.44
2023-03-28T09:11:03.909Z,98662.91
2023-03-28T09:16:32.822Z,98669.00
2023-03-28T09:22:50.064Z,98671.56
2023-03-28T09:28:19.076Z,98668.97
2023-03-28T09:33:31.738Z,98662.91
2023-03-28T09:38:38.438Z,98660.28
2023-03-28T09:43:50.582Z,98665.38
2023-03-28T09:49:14.808Z,98652.31
2023-03-28T09:54:23.959Z,98642.78
2023-03-28T09:59:31.336Z,98648.84
2023-03-28T10:04:40.177Z,98641.06
2023-03-28T10:09:59.206Z,98658.38
2023-03-28T10:15:02.896Z,98673.09
2023-03-28T10:20:25.399Z,98673.03
2023-03-28T10:25:40.514Z,98663.41
2023-03-28T10:30:44.695Z,98601.88
2023-03-28T10:36:00.852Z,98636.47
2023-03-28T10:41:10.148Z,98662.44
2023-03-28T10:46:45.879Z,98662.38
2023-03-28T10:51:54.061Z,98661.63
2023-03-28T10:57:09.139Z,98665.97
2023-03-28T11:02:30.855Z,98651.16
2023-03-28T11:07:42.757Z,98632.94
2023-03-28T11:13:23.084Z,98662.34
2023-03-28T11:18:41.233Z,98650.09
2023-03-28T11:24:36.030Z,98652.69
2023-03-28T11:30:16.071Z,98652.66
2023-03-28T11:35:31.932Z,98659.59
2023-03-28T11:41:13.649Z,98649.09
2023-03-28T11:46:41.074Z,98641.25
2023-03-28T11:51:53.595Z,98636.88
2023-03-28T11:57:20.100Z,98635.03
2023-03-28T12:02:44.813Z,98608.19
2023-03-28T12:08:13.565Z,98628.09
2023-03-28T12:13:46.756Z,98583.91
2023-03-28T12:18:58.971Z,98621.06
2023-03-28T12:24:36.284Z,98591.63
2023-03-28T12:29:57.398Z,98599.38
2023-03-28T12:35:05.444Z,98621.88
2023-03-28T12:40:55.261Z,98617.44
2023-03-28T12:46:02.752Z,98619.25
2023-03-28T12:51:16.778Z,98618.31
2023-03-28T12:56:22.101Z,98549.97
2023-03-28T13:01:29.729Z,98602.66
2023-03-28T13:06:53.241Z,98586.97
2023-03-28T13:12:03.573Z,98575.72
2023-03-28T13:17:21.993Z,98558.31
2023-03-28T13:22:35.274Z,98574.00
2023-03-28T13:27:37.728Z,98564.59
2023-03-28T13:32:46.338Z,98573.16
2023-03-28T13:37:48.785Z,98551.56
2023-03-28T13:43:00.615Z,98578.38
2023-03-28T13:48:13.195Z,98553.28
2023-03-28T13:53:16.343Z,98566.22
2023-03-28T13:58:19.263Z,98520.44
2023-03-28T14:03:21.699Z,98561.06
2023-03-28T14:08:26.106Z,98566.31
2023-03-28T14:13:30.799Z,98520.47
2023-03-28T14:18:41.358Z,98476.41
2023-03-28T14:23:56.364Z,98561.97
2023-03-28T14:29:07.679Z,98545.72
2023-03-28T14:34:27.627Z,98455.81
2023-03-28T14:39:32.620Z,98518.19
2023-03-28T14:44:41.876Z,98541.53
2023-03-28T14:49:46.069Z,98492.25
2023-03-28T14:54:49.329Z,98547.75
2023-03-28T14:59:52.769Z,98549.50
2023-03-28T15:04:57.433Z,98548.69
2023-03-28T15:10:09.747Z,98546.09
2023-03-28T15:15:25.699Z,98491.69
2023-03-28T15:20:33.903Z,98550.59
2023-03-28T15:25:38.983Z,98490.97
2023-03-28T15:30:44.052Z,98536.03
2023-03-28T15:35:47.276Z,98549.91
2023-03-28T15:40:51.721Z,98554.25
2023-03-28T15:45:59.913Z,98546.50
2023-03-28T15:51:08.733Z,98434.06
2023-03-28T15:56:23.131Z,98506.78
2023-03-28T16:01:31.510Z,98506.81
2023-03-28T16:06:42.212Z,98550.13
2023-03-28T16:11:49.996Z,98538.88
2023-03-28T16:17:16.005Z,98538.03
2023-03-28T16:22:29.436Z,98517.28
2023-03-28T16:27:32.716Z,98519.03
2023-03-28T16:32:35.035Z,98561.47
2023-03-28T16:37:37.600Z,98566.69
2023-03-28T16:42:39.964Z,98526.88
2023-03-28T16:47:42.480Z,98519.91
2023-03-28T16:52:44.803Z,98527.72
2023-03-28T16:57:47.281Z,98544.19
2023-03-28T17:02:51.244Z,98598.78
2023-03-28T17:07:53.528Z,98590.09
2023-03-28T17:12:57.126Z,98550.25
2023-03-28T17:18:01.420Z,98583.19
2023-03-28T17:23:04.352Z,98554.59
2023-03-28T17:28:06.838Z,98565.00
2023-03-28T17:33:09.579Z,98564.09
2023-03-28T17:38:12.306Z,98591.81
2023-03-28T17:43:14.757Z,98590.97
2023-03-28T17:48:17.738Z,98602.22
2023-03-28T17:53:20.205Z,98527.66
2023-03-28T17:58:22.711Z,98595.28
2023-03-28T18:03:25.149Z,98592.66
2023-03-28T18:08:40.323Z,98569.25
2023-03-28T18:13:43.086Z,98602.19
2023-03-28T18:18:45.591Z,98580.44
2023-03-28T18:23:48.924Z,98610.81
2023-03-28T18:28:51.379Z,98523.22
2023-03-28T18:33:54.836Z,98615.13
2023-03-28T18:38:59.748Z,98419.22
2023-03-28T18:44:02.335Z,98448.69
2023-03-28T18:49:05.937Z,98609.03
2023-03-28T18:54:08.397Z,98555.25
2023-03-28T18:59:11.480Z,98596.84
2023-03-28T19:04:13.977Z,98532.69
2023-03-28T19:09:16.773Z,98602.91
2023-03-28T19:14:19.162Z,98609.84
2023-03-28T19:19:21.613Z,98590.72
2023-03-28T19:24:24.120Z,98591.59
2023-03-28T19:29:27.833Z,98564.75
2023-03-28T19:34:30.244Z,98569.94
2023-03-28T19:39:32.587Z,98604.59
2023-03-28T19:44:34.945Z,98597.66
2023-03-28T19:49:39.942Z,98586.31
2023-03-28T19:54:42.318Z,98582.88
2023-03-28T19:59:44.622Z,98563.75
2023-03-28T20:04:46.975Z,98584.56
2023-03-28T20:09:49.660Z,98558.53
2023-03-28T20:14:51.980Z,98549.88
2023-03-28T20:19:54.522Z,98554.19
2023-03-28T20:24:57.253Z,98583.72
2023-03-28T20:29:59.608Z,98561.13
2023-03-28T20:35:02.153Z,98563.78
2023-03-28T20:40:05.984Z,98535.16
2023-03-28T20:45:09.461Z,98576.75
2023-03-28T20:50:12.004Z,98580.25
2023-03-28T20:55:15.311Z,98451.94
2023-03-28T21:00:18.369Z,98480.53
2023-03-28T21:05:22.388Z,98565.50
2023-03-28T21:10:24.835Z,98560.31
2023-03-28T21:15:29.382Z,98534.28
2023-03-28T21:20:31.746Z,98122.88
2023-03-28T21:25:34.175Z,98523.03
2023-03-28T21:30:37.508Z,98509.16
2023-03-28T21:35:42.831Z,98551.66
2023-03-28T21:40:46.975Z,98500.50
2023-03-28T21:45:49.715Z,98472.72
2023-03-28T21:50:54.097Z,98528.22
2023-03-28T21:55:57.081Z,98529.94
2023-03-28T22:01:00.650Z,98533.44
2023-03-28T22:06:03.315Z,98519.53
2023-03-28T22:11:13.719Z,98500.47
2023-03-28T22:16:16.562Z,98440.69
2023-03-28T22:21:18.889Z,98514.31
2023-03-28T22:26:21.473Z,98481.34
2023-03-28T22:31:25.607Z,98429.38
2023-03-28T22:36:28.055Z,98442.38
2023-03-28T22:41:32.178Z,98446.72
2023-03-28T22:46:34.536Z,98452.75
2023-03-28T22:51:46.424Z,98466.63
2023-03-28T22:56:50.043Z,98496.03
2023-03-28T23:01:52.573Z,98472.63
2023-03-28T23:06:55.406Z,98483.94
2023-03-28T23:11:57.798Z,98457.88
2023-03-28T23:17:02.648Z,98440.56
2023-03-28T23:22:07.789Z,98463.13
2023-03-28T23:27:10.189Z,98476.91
2023-03-28T23:32:12.482Z,98471.69
2023-03-28T23:37:14.836Z,98476.88
2023-03-28T23:42:17.080Z,98443.03
2023-03-28T23:47:20.794Z,98425.69
2023-03-28T23:52:23.103Z,98451.75
2023-03-28T23:57:25.544Z,98448.25
